sensor_id;sensor_type;location;lat;lon;timestamp;P1;durP1;ratioP1;P2;durP2;ratioP2
59042;SDS011;44826;51.596;5.624;2022-10-31T00:01:14;10.73;;;6.95;;
59042;SDS011;44826;51.596;5.624;2022-10-31T00:03:41;11.43;;;7.30;;
59042;SDS011;44826;51.596;5.624;2022-10-31T00:06:07;11.93;;;6.63;;
59042;SDS011;44826;51.596;5.624;2022-10-31T00:08:32;14.38;;;7.47;;
59042;SDS011;44826;51.596;5.624;2022-10-31T00:10:57;12.50;;;7.18;;
59042;SDS011;44826;51.596;5.624;2022-10-31T00:13:23;10.90;;;6.57;;
59042;SDS011;44826;51.596;5.624;2022-10-31T00:15:48;10.73;;;6.82;;
59042;SDS011;44826;51.596;5.624;2022-10-31T00:18:13;14.73;;;6.97;;
59042;SDS011;44826;51.596;5.624;2022-10-31T00:20:39;13.20;;;6.78;;
59042;SDS011;44826;51.596;5.624;2022-10-31T00:23:05;10.98;;;6.65;;
59042;SDS011;44826;51.596;5.624;2022-10-31T00:25:38;10.10;;;6.55;;
59042;SDS011;44826;51.596;5.624;2022-10-31T00:28:05;11.25;;;7.03;;
59042;SDS011;44826;51.596;5.624;2022-10-31T00:30:31;11.23;;;7.03;;
59042;SDS011;44826;51.596;5.624;2022-10-31T00:32:57;10.30;;;6.70;;
59042;SDS011;44826;51.596;5.624;2022-10-31T00:35:22;11.18;;;6.88;;
59042;SDS011;44826;51.596;5.624;2022-10-31T00:37:47;10.13;;;6.43;;
59042;SDS011;44826;51.596;5.624;2022-10-31T00:40:13;14.60;;;7.97;;
59042;SDS011;44826;51.596;5.624;2022-10-31T00:42:39;14.20;;;7.35;;
59042;SDS011;44826;51.596;5.624;2022-10-31T00:45:06;12.32;;;7.00;;
59042;SDS011;44826;51.596;5.624;2022-10-31T00:47:35;12.80;;;6.80;;
59042;SDS011;44826;51.596;5.624;2022-10-31T00:50:00;9.40;;;6.40;;
59042;SDS011;44826;51.596;5.624;2022-10-31T00:52:25;10.10;;;6.13;;
59042;SDS011;44826;51.596;5.624;2022-10-31T00:54:51;9.45;;;6.07;;
59042;SDS011;44826;51.596;5.624;2022-10-31T00:57:16;12.57;;;7.28;;
59042;SDS011;44826;51.596;5.624;2022-10-31T00:59:41;8.57;;;6.00;;
59042;SDS011;44826;51.596;5.624;2022-10-31T01:02:06;8.93;;;6.50;;
59042;SDS011;44826;51.596;5.624;2022-10-31T01:04:32;9.95;;;6.50;;
59042;SDS011;44826;51.596;5.624;2022-10-31T01:06:57;11.60;;;7.22;;
59042;SDS011;44826;51.596;5.624;2022-10-31T01:09:23;10.70;;;6.18;;
59042;SDS011;44826;51.596;5.624;2022-10-31T01:11:48;12.02;;;6.45;;
59042;SDS011;44826;51.596;5.624;2022-10-31T01:14:13;10.52;;;6.00;;
59042;SDS011;44826;51.596;5.624;2022-10-31T01:16:39;9.57;;;5.70;;
59042;SDS011;44826;51.596;5.624;2022-10-31T01:19:04;8.50;;;5.80;;
59042;SDS011;44826;51.596;5.624;2022-10-31T01:21:29;9.23;;;5.78;;
59042;SDS011;44826;51.596;5.624;2022-10-31T01:23:55;16.02;;;6.60;;
59042;SDS011;44826;51.596;5.624;2022-10-31T01:26:22;9.65;;;6.25;;
59042;SDS011;44826;51.596;5.624;2022-10-31T01:28:53;7.72;;;5.30;;
59042;SDS011;44826;51.596;5.624;2022-10-31T01:31:22;10.27;;;5.82;;
59042;SDS011;44826;51.596;5.624;2022-10-31T01:33:49;8.13;;;5.28;;
59042;SDS011;44826;51.596;5.624;2022-10-31T01:36:19;10.10;;;5.55;;
59042;SDS011;44826;51.596;5.624;2022-10-31T01:38:47;8.95;;;5.38;;
59042;SDS011;44826;51.596;5.624;2022-10-31T01:41:16;8.63;;;5.60;;
59042;SDS011;44826;51.596;5.624;2022-10-31T01:43:45;10.70;;;6.00;;
59042;SDS011;44826;51.596;5.624;2022-10-31T01:46:12;7.80;;;5.43;;
59042;SDS011;44826;51.596;5.624;2022-10-31T01:48:39;8.30;;;5.40;;
59042;SDS011;44826;51.596;5.624;2022-10-31T01:51:05;7.53;;;5.07;;
59042;SDS011;44826;51.596;5.624;2022-10-31T01:53:32;8.63;;;5.22;;
59042;SDS011;44826;51.596;5.624;2022-10-31T01:55:58;9.50;;;5.63;;
59042;SDS011;44826;51.596;5.624;2022-10-31T01:58:25;8.23;;;5.38;;
59042;SDS011;44826;51.596;5.624;2022-10-31T02:00:56;8.38;;;5.47;;
59042;SDS011;44826;51.596;5.624;2022-10-31T02:03:23;9.90;;;5.75;;
59042;SDS011;44826;51.596;5.624;2022-10-31T02:05:52;8.40;;;5.28;;
59042;SDS011;44826;51.596;5.624;2022-10-31T02:08:21;10.63;;;6.20;;
59042;SDS011;44826;51.596;5.624;2022-10-31T02:13:16;8.65;;;5.75;;
59042;SDS011;44826;51.596;5.624;2022-10-31T02:15:42;11.55;;;5.88;;
59042;SDS011;44826;51.596;5.624;2022-10-31T02:18:10;12.65;;;6.43;;
59042;SDS011;44826;51.596;5.624;2022-10-31T02:20:41;11.10;;;6.40;;
59042;SDS011;44826;51.596;5.624;2022-10-31T02:34:30;8.93;;;5.88;;
59042;SDS011;44826;51.596;5.624;2022-10-31T02:37:01;9.13;;;5.65;;
59042;SDS011;44826;51.596;5.624;2022-10-31T02:39:42;7.05;;;5.20;;
59042;SDS011;44826;51.596;5.624;2022-10-31T02:42:32;7.50;;;5.00;;
59042;SDS011;44826;51.596;5.624;2022-10-31T02:47:37;7.55;;;4.93;;
59042;SDS011;44826;51.596;5.624;2022-10-31T02:52:33;8.82;;;4.70;;
59042;SDS011;44826;51.596;5.624;2022-10-31T02:55:09;7.72;;;5.28;;
59042;SDS011;44826;51.596;5.624;2022-10-31T02:58:02;7.50;;;4.95;;
59042;SDS011;44826;51.596;5.624;2022-10-31T03:00:35;8.70;;;5.65;;
59042;SDS011;44826;51.596;5.624;2022-10-31T03:03:12;10.63;;;5.38;;
59042;SDS011;44826;51.596;5.624;2022-10-31T03:06:00;11.00;;;6.15;;
59042;SDS011;44826;51.596;5.624;2022-10-31T03:11:23;8.02;;;5.40;;
59042;SDS011;44826;51.596;5.624;2022-10-31T03:13:58;8.82;;;5.63;;
59042;SDS011;44826;51.596;5.624;2022-10-31T03:16:34;10.27;;;6.00;;
59042;SDS011;44826;51.596;5.624;2022-10-31T03:19:10;10.18;;;5.70;;
59042;SDS011;44826;51.596;5.624;2022-10-31T03:21:44;8.75;;;5.70;;
59042;SDS011;44826;51.596;5.624;2022-10-31T03:24:13;8.90;;;5.95;;
59042;SDS011;44826;51.596;5.624;2022-10-31T03:26:43;8.60;;;5.72;;
59042;SDS011;44826;51.596;5.624;2022-10-31T03:29:13;8.05;;;5.53;;
59042;SDS011;44826;51.596;5.624;2022-10-31T03:31:51;9.30;;;6.15;;
59042;SDS011;44826;51.596;5.624;2022-10-31T03:34:22;10.90;;;6.35;;
59042;SDS011;44826;51.596;5.624;2022-10-31T03:36:48;11.45;;;6.32;;
59042;SDS011;44826;51.596;5.624;2022-10-31T03:39:17;10.38;;;5.70;;
59042;SDS011;44826;51.596;5.624;2022-10-31T03:41:46;9.50;;;5.20;;
59042;SDS011;44826;51.596;5.624;2022-10-31T03:44:19;8.20;;;5.38;;
59042;SDS011;44826;51.596;5.624;2022-10-31T03:46:47;9.10;;;5.40;;
59042;SDS011;44826;51.596;5.624;2022-10-31T03:49:13;10.27;;;6.10;;
59042;SDS011;44826;51.596;5.624;2022-10-31T03:51:44;9.20;;;5.75;;
59042;SDS011;44826;51.596;5.624;2022-10-31T03:56:52;11.40;;;6.25;;
59042;SDS011;44826;51.596;5.624;2022-10-31T03:59:30;9.88;;;6.18;;
59042;SDS011;44826;51.596;5.624;2022-10-31T04:02:00;10.60;;;6.00;;
59042;SDS011;44826;51.596;5.624;2022-10-31T04:06:57;7.03;;;4.30;;
59042;SDS011;44826;51.596;5.624;2022-10-31T04:09:25;5.13;;;3.65;;
59042;SDS011;44826;51.596;5.624;2022-10-31T04:11:53;9.00;;;4.03;;
59042;SDS011;44826;51.596;5.624;2022-10-31T04:14:21;6.10;;;3.42;;
59042;SDS011;44826;51.596;5.624;2022-10-31T04:16:50;5.75;;;3.90;;
59042;SDS011;44826;51.596;5.624;2022-10-31T04:19:15;5.07;;;3.85;;
59042;SDS011;44826;51.596;5.624;2022-10-31T04:21:41;4.97;;;3.70;;
59042;SDS011;44826;51.596;5.624;2022-10-31T04:24:08;4.95;;;3.22;;
59042;SDS011;44826;51.596;5.624;2022-10-31T04:26:34;4.43;;;2.80;;
59042;SDS011;44826;51.596;5.624;2022-10-31T04:28:59;3.58;;;2.40;;
59042;SDS011;44826;51.596;5.624;2022-10-31T04:31:24;5.18;;;3.45;;
59042;SDS011;44826;51.596;5.624;2022-10-31T04:33:50;6.85;;;4.38;;
59042;SDS011;44826;51.596;5.624;2022-10-31T04:36:15;6.25;;;4.22;;
59042;SDS011;44826;51.596;5.624;2022-10-31T04:38:40;6.45;;;4.45;;
59042;SDS011;44826;51.596;5.624;2022-10-31T04:41:06;5.20;;;3.90;;
59042;SDS011;44826;51.596;5.624;2022-10-31T04:43:31;6.40;;;3.53;;
59042;SDS011;44826;51.596;5.624;2022-10-31T04:45:56;5.40;;;3.50;;
59042;SDS011;44826;51.596;5.624;2022-10-31T04:48:21;5.18;;;3.22;;
59042;SDS011;44826;51.596;5.624;2022-10-31T04:50:47;6.90;;;3.35;;
59042;SDS011;44826;51.596;5.624;2022-10-31T04:53:12;6.10;;;3.42;;
59042;SDS011;44826;51.596;5.624;2022-10-31T04:55:37;5.80;;;3.47;;
59042;SDS011;44826;51.596;5.624;2022-10-31T04:58:02;4.72;;;3.70;;
59042;SDS011;44826;51.596;5.624;2022-10-31T05:00:28;5.07;;;3.70;;
59042;SDS011;44826;51.596;5.624;2022-10-31T05:02:54;6.55;;;3.90;;
59042;SDS011;44826;51.596;5.624;2022-10-31T05:05:22;7.25;;;4.07;;
59042;SDS011;44826;51.596;5.624;2022-10-31T05:07:50;8.60;;;4.47;;
59042;SDS011;44826;51.596;5.624;2022-10-31T05:10:17;8.77;;;4.80;;
59042;SDS011;44826;51.596;5.624;2022-10-31T05:12:56;10.52;;;4.72;;
59042;SDS011;44826;51.596;5.624;2022-10-31T05:15:23;7.18;;;4.25;;
59042;SDS011;44826;51.596;5.624;2022-10-31T05:17:50;6.30;;;4.10;;
59042;SDS011;44826;51.596;5.624;2022-10-31T05:20:17;5.95;;;4.10;;
59042;SDS011;44826;51.596;5.624;2022-10-31T05:22:45;5.63;;;3.35;;
59042;SDS011;44826;51.596;5.624;2022-10-31T05:25:11;7.47;;;3.30;;
59042;SDS011;44826;51.596;5.624;2022-10-31T05:27:41;4.45;;;2.88;;
59042;SDS011;44826;51.596;5.624;2022-10-31T05:30:07;4.35;;;3.00;;
59042;SDS011;44826;51.596;5.624;2022-10-31T05:32:38;5.05;;;3.15;;
59042;SDS011;44826;51.596;5.624;2022-10-31T05:35:05;7.22;;;3.17;;
59042;SDS011;44826;51.596;5.624;2022-10-31T05:37:33;4.10;;;3.03;;
59042;SDS011;44826;51.596;5.624;2022-10-31T05:39:59;5.28;;;2.90;;
59042;SDS011;44826;51.596;5.624;2022-10-31T05:42:24;6.70;;;2.83;;
59042;SDS011;44826;51.596;5.624;2022-10-31T05:44:49;4.13;;;2.70;;
59042;SDS011;44826;51.596;5.624;2022-10-31T05:47:14;6.35;;;3.10;;
59042;SDS011;44826;51.596;5.624;2022-10-31T05:49:40;6.18;;;3.90;;
59042;SDS011;44826;51.596;5.624;2022-10-31T05:52:05;6.60;;;3.83;;
59042;SDS011;44826;51.596;5.624;2022-10-31T05:54:30;6.55;;;3.50;;
59042;SDS011;44826;51.596;5.624;2022-10-31T05:56:55;5.90;;;3.50;;
59042;SDS011;44826;51.596;5.624;2022-10-31T05:59:21;6.20;;;3.50;;
59042;SDS011;44826;51.596;5.624;2022-10-31T06:01:46;6.22;;;3.83;;
59042;SDS011;44826;51.596;5.624;2022-10-31T06:04:11;7.68;;;4.63;;
59042;SDS011;44826;51.596;5.624;2022-10-31T06:06:36;8.98;;;4.93;;
59042;SDS011;44826;51.596;5.624;2022-10-31T06:09:02;8.50;;;5.25;;
59042;SDS011;44826;51.596;5.624;2022-10-31T06:11:27;8.70;;;4.82;;
59042;SDS011;44826;51.596;5.624;2022-10-31T06:13:52;11.05;;;5.10;;
59042;SDS011;44826;51.596;5.624;2022-10-31T06:16:17;7.03;;;4.07;;
59042;SDS011;44826;51.596;5.624;2022-10-31T06:18:43;8.18;;;4.65;;
59042;SDS011;44826;51.596;5.624;2022-10-31T06:21:08;8.05;;;5.07;;
59042;SDS011;44826;51.596;5.624;2022-10-31T06:23:33;8.65;;;5.13;;
59042;SDS011;44826;51.596;5.624;2022-10-31T06:25:58;11.35;;;5.78;;
59042;SDS011;44826;51.596;5.624;2022-10-31T06:28:24;8.32;;;5.53;;
59042;SDS011;44826;51.596;5.624;2022-10-31T06:30:49;13.57;;;6.38;;
59042;SDS011;44826;51.596;5.624;2022-10-31T06:33:14;12.60;;;6.70;;
59042;SDS011;44826;51.596;5.624;2022-10-31T06:35:44;9.32;;;5.28;;
59042;SDS011;44826;51.596;5.624;2022-10-31T06:38:10;10.93;;;5.77;;
59042;SDS011;44826;51.596;5.624;2022-10-31T06:40:35;9.35;;;5.13;;
59042;SDS011;44826;51.596;5.624;2022-10-31T06:43:01;8.93;;;4.82;;
59042;SDS011;44826;51.596;5.624;2022-10-31T06:45:26;8.00;;;4.93;;
59042;SDS011;44826;51.596;5.624;2022-10-31T06:47:53;6.55;;;4.20;;
59042;SDS011;44826;51.596;5.624;2022-10-31T06:50:19;6.15;;;3.92;;
59042;SDS011;44826;51.596;5.624;2022-10-31T06:52:52;4.90;;;3.30;;
59042;SDS011;44826;51.596;5.624;2022-10-31T06:55:20;3.97;;;2.95;;
59042;SDS011;44826;51.596;5.624;2022-10-31T06:57:49;4.63;;;3.25;;
59042;SDS011;44826;51.596;5.624;2022-10-31T07:00:18;5.45;;;3.25;;
59042;SDS011;44826;51.596;5.624;2022-10-31T07:02:43;7.53;;;4.18;;
59042;SDS011;44826;51.596;5.624;2022-10-31T07:05:08;11.70;;;4.85;;
59042;SDS011;44826;51.596;5.624;2022-10-31T07:07:34;9.65;;;4.65;;
59042;SDS011;44826;51.596;5.624;2022-10-31T07:09:59;10.20;;;4.65;;
59042;SDS011;44826;51.596;5.624;2022-10-31T07:12:24;8.27;;;4.72;;
59042;SDS011;44826;51.596;5.624;2022-10-31T07:14:49;9.80;;;4.40;;
59042;SDS011;44826;51.596;5.624;2022-10-31T07:17:15;7.35;;;4.70;;
59042;SDS011;44826;51.596;5.624;2022-10-31T07:19:40;9.30;;;4.78;;
59042;SDS011;44826;51.596;5.624;2022-10-31T07:22:06;17.38;;;4.97;;
59042;SDS011;44826;51.596;5.624;2022-10-31T07:24:31;13.23;;;5.13;;
59042;SDS011;44826;51.596;5.624;2022-10-31T07:26:56;10.65;;;5.63;;
59042;SDS011;44826;51.596;5.624;2022-10-31T07:29:21;11.40;;;5.15;;
59042;SDS011;44826;51.596;5.624;2022-10-31T07:31:47;9.93;;;5.55;;
59042;SDS011;44826;51.596;5.624;2022-10-31T07:34:12;9.70;;;4.93;;
59042;SDS011;44826;51.596;5.624;2022-10-31T07:36:37;8.57;;;5.13;;
59042;SDS011;44826;51.596;5.624;2022-10-31T07:39:02;7.80;;;4.85;;
59042;SDS011;44826;51.596;5.624;2022-10-31T07:41:28;10.00;;;6.00;;
59042;SDS011;44826;51.596;5.624;2022-10-31T07:43:53;8.93;;;5.63;;
59042;SDS011;44826;51.596;5.624;2022-10-31T07:46:18;9.13;;;5.75;;
59042;SDS011;44826;51.596;5.624;2022-10-31T07:48:44;9.55;;;6.65;;
59042;SDS011;44826;51.596;5.624;2022-10-31T07:51:09;12.50;;;7.57;;
59042;SDS011;44826;51.596;5.624;2022-10-31T07:53:34;13.80;;;7.90;;
59042;SDS011;44826;51.596;5.624;2022-10-31T07:55:59;14.35;;;8.70;;
59042;SDS011;44826;51.596;5.624;2022-10-31T07:58:25;14.68;;;9.20;;
59042;SDS011;44826;51.596;5.624;2022-10-31T08:00:50;17.33;;;9.60;;
59042;SDS011;44826;51.596;5.624;2022-10-31T08:03:16;19.35;;;10.07;;
59042;SDS011;44826;51.596;5.624;2022-10-31T08:05:43;18.58;;;11.07;;
59042;SDS011;44826;51.596;5.624;2022-10-31T08:08:12;17.90;;;11.20;;
59042;SDS011;44826;51.596;5.624;2022-10-31T08:10:38;18.75;;;11.75;;
59042;SDS011;44826;51.596;5.624;2022-10-31T08:13:06;20.35;;;11.88;;
59042;SDS011;44826;51.596;5.624;2022-10-31T08:15:34;19.70;;;11.65;;
59042;SDS011;44826;51.596;5.624;2022-10-31T08:18:03;19.00;;;11.98;;
59042;SDS011;44826;51.596;5.624;2022-10-31T08:20:28;16.90;;;11.30;;
59042;SDS011;44826;51.596;5.624;2022-10-31T08:22:54;19.13;;;12.00;;
59042;SDS011;44826;51.596;5.624;2022-10-31T08:25:31;20.58;;;12.13;;
59042;SDS011;44826;51.596;5.624;2022-10-31T08:27:57;19.42;;;12.20;;
59042;SDS011;44826;51.596;5.624;2022-10-31T08:30:24;19.98;;;11.77;;
59042;SDS011;44826;51.596;5.624;2022-10-31T08:33:11;21.13;;;11.80;;
59042;SDS011;44826;51.596;5.624;2022-10-31T08:35:39;20.15;;;12.35;;
59042;SDS011;44826;51.596;5.624;2022-10-31T08:38:04;20.25;;;12.10;;
59042;SDS011;44826;51.596;5.624;2022-10-31T08:40:30;22.05;;;12.27;;
59042;SDS011;44826;51.596;5.624;2022-10-31T08:45:30;21.45;;;12.43;;
59042;SDS011;44826;51.596;5.624;2022-10-31T08:48:00;18.95;;;11.65;;
59042;SDS011;44826;51.596;5.624;2022-10-31T08:50:28;20.83;;;12.00;;
59042;SDS011;44826;51.596;5.624;2022-10-31T08:52:59;20.67;;;11.60;;
59042;SDS011;44826;51.596;5.624;2022-10-31T08:55:29;20.85;;;11.55;;
59042;SDS011;44826;51.596;5.624;2022-10-31T08:57:55;19.02;;;11.38;;
59042;SDS011;44826;51.596;5.624;2022-10-31T09:00:21;18.80;;;10.88;;
59042;SDS011;44826;51.596;5.624;2022-10-31T09:02:47;22.08;;;12.50;;
59042;SDS011;44826;51.596;5.624;2022-10-31T09:05:12;21.40;;;11.80;;
59042;SDS011;44826;51.596;5.624;2022-10-31T09:07:37;21.05;;;11.82;;
59042;SDS011;44826;51.596;5.624;2022-10-31T09:10:02;21.48;;;12.25;;
59042;SDS011;44826;51.596;5.624;2022-10-31T09:12:28;21.20;;;11.98;;
59042;SDS011;44826;51.596;5.624;2022-10-31T09:14:53;21.52;;;12.32;;
59042;SDS011;44826;51.596;5.624;2022-10-31T09:17:18;23.42;;;11.45;;
59042;SDS011;44826;51.596;5.624;2022-10-31T09:19:44;23.83;;;12.85;;
59042;SDS011;44826;51.596;5.624;2022-10-31T09:22:09;22.90;;;12.52;;
59042;SDS011;44826;51.596;5.624;2022-10-31T09:24:34;22.35;;;12.80;;
59042;SDS011;44826;51.596;5.624;2022-10-31T09:26:59;25.23;;;13.25;;
59042;SDS011;44826;51.596;5.624;2022-10-31T09:29:25;25.75;;;13.57;;
59042;SDS011;44826;51.596;5.624;2022-10-31T09:31:50;24.27;;;12.95;;
59042;SDS011;44826;51.596;5.624;2022-10-31T09:34:15;22.77;;;13.13;;
59042;SDS011;44826;51.596;5.624;2022-10-31T09:36:40;24.80;;;13.35;;
59042;SDS011;44826;51.596;5.624;2022-10-31T09:39:07;24.52;;;13.25;;
59042;SDS011;44826;51.596;5.624;2022-10-31T09:41:47;24.08;;;13.80;;
59042;SDS011;44826;51.596;5.624;2022-10-31T09:44:26;23.65;;;13.40;;
59042;SDS011;44826;51.596;5.624;2022-10-31T09:49:56;23.75;;;13.65;;
59042;SDS011;44826;51.596;5.624;2022-10-31T09:52:35;23.88;;;13.60;;
59042;SDS011;44826;51.596;5.624;2022-10-31T09:57:38;24.70;;;14.50;;
59042;SDS011;44826;51.596;5.624;2022-10-31T10:00:07;27.10;;;14.98;;
59042;SDS011;44826;51.596;5.624;2022-10-31T10:02:50;27.05;;;15.77;;
59042;SDS011;44826;51.596;5.624;2022-10-31T10:08:18;27.73;;;16.23;;
59042;SDS011;44826;51.596;5.624;2022-10-31T10:21:35;27.40;;;15.95;;
59042;SDS011;44826;51.596;5.624;2022-10-31T10:27:28;24.00;;;15.60;;
59042;SDS011;44826;51.596;5.624;2022-10-31T10:30:04;29.58;;;16.05;;
59042;SDS011;44826;51.596;5.624;2022-10-31T10:32:42;31.77;;;16.58;;
59042;SDS011;44826;51.596;5.624;2022-10-31T10:37:52;25.23;;;15.50;;
59042;SDS011;44826;51.596;5.624;2022-10-31T10:40:25;26.30;;;15.60;;
59042;SDS011;44826;51.596;5.624;2022-10-31T10:42:59;27.17;;;15.73;;
59042;SDS011;44826;51.596;5.624;2022-10-31T10:49:00;25.83;;;15.10;;
59042;SDS011;44826;51.596;5.624;2022-10-31T10:51:58;30.23;;;16.58;;
59042;SDS011;44826;51.596;5.624;2022-10-31T10:54:39;28.10;;;16.98;;
59042;SDS011;44826;51.596;5.624;2022-10-31T10:57:53;31.88;;;17.38;;
59042;SDS011;44826;51.596;5.624;2022-10-31T10:59:55;31.52;;;16.63;;
59042;SDS011;44826;51.596;5.624;2022-10-31T11:02:24;27.13;;;17.02;;
59042;SDS011;44826;51.596;5.624;2022-10-31T11:04:53;31.63;;;17.42;;
59042;SDS011;44826;51.596;5.624;2022-10-31T11:07:20;28.92;;;16.90;;
59042;SDS011;44826;51.596;5.624;2022-10-31T11:09:46;28.45;;;16.90;;
59042;SDS011;44826;51.596;5.624;2022-10-31T11:14:50;28.65;;;17.38;;
59042;SDS011;44826;51.596;5.624;2022-10-31T11:17:25;29.85;;;17.35;;
59042;SDS011;44826;51.596;5.624;2022-10-31T11:22:47;28.17;;;16.92;;
59042;SDS011;44826;51.596;5.624;2022-10-31T11:25:23;29.35;;;17.50;;
59042;SDS011;44826;51.596;5.624;2022-10-31T11:28:02;30.85;;;16.85;;
59042;SDS011;44826;51.596;5.624;2022-10-31T11:30:28;31.73;;;17.10;;
59042;SDS011;44826;51.596;5.624;2022-10-31T11:32:55;28.23;;;17.42;;
59042;SDS011;44826;51.596;5.624;2022-10-31T11:35:22;30.02;;;17.30;;
59042;SDS011;44826;51.596;5.624;2022-10-31T11:37:50;28.80;;;16.63;;
59042;SDS011;44826;51.596;5.624;2022-10-31T11:40:22;28.42;;;16.30;;
59042;SDS011;44826;51.596;5.624;2022-10-31T11:42:50;31.77;;;17.23;;
59042;SDS011;44826;51.596;5.624;2022-10-31T11:45:27;30.83;;;17.40;;
59042;SDS011;44826;51.596;5.624;2022-10-31T11:47:56;28.92;;;16.60;;
59042;SDS011;44826;51.596;5.624;2022-10-31T11:50:22;31.35;;;16.67;;
59042;SDS011;44826;51.596;5.624;2022-10-31T11:52:56;28.88;;;16.65;;
59042;SDS011;44826;51.596;5.624;2022-10-31T11:55:34;32.35;;;16.83;;
59042;SDS011;44826;51.596;5.624;2022-10-31T11:58:02;27.35;;;15.82;;
59042;SDS011;44826;51.596;5.624;2022-10-31T12:00:36;31.20;;;16.45;;
59042;SDS011;44826;51.596;5.624;2022-10-31T12:05:47;27.83;;;15.60;;
59042;SDS011;44826;51.596;5.624;2022-10-31T12:13:38;24.10;;;14.55;;
59042;SDS011;44826;51.596;5.624;2022-10-31T12:16:20;27.38;;;15.20;;
59042;SDS011;44826;51.596;5.624;2022-10-31T12:19:04;24.13;;;14.30;;
59042;SDS011;44826;51.596;5.624;2022-10-31T12:37:40;23.65;;;13.05;;
59042;SDS011;44826;51.596;5.624;2022-10-31T12:49:37;19.50;;;12.13;;
59042;SDS011;44826;51.596;5.624;2022-10-31T12:55:03;22.10;;;11.77;;
59042;SDS011;44826;51.596;5.624;2022-10-31T12:57:58;20.30;;;11.90;;
59042;SDS011;44826;51.596;5.624;2022-10-31T13:00:28;19.05;;;10.93;;
59042;SDS011;44826;51.596;5.624;2022-10-31T13:05:29;21.60;;;10.80;;
59042;SDS011;44826;51.596;5.624;2022-10-31T13:07:59;18.63;;;10.80;;
59042;SDS011;44826;51.596;5.624;2022-10-31T13:10:31;19.25;;;9.95;;
59042;SDS011;44826;51.596;5.624;2022-10-31T13:13:23;15.18;;;9.43;;
59042;SDS011;44826;51.596;5.624;2022-10-31T13:15:56;17.77;;;9.88;;
59042;SDS011;44826;51.596;5.624;2022-10-31T13:18:29;16.25;;;9.95;;
59042;SDS011;44826;51.596;5.624;2022-10-31T13:20:58;15.32;;;8.98;;
59042;SDS011;44826;51.596;5.624;2022-10-31T13:23:31;19.70;;;10.45;;
59042;SDS011;44826;51.596;5.624;2022-10-31T13:25:59;17.30;;;10.02;;
59042;SDS011;44826;51.596;5.624;2022-10-31T13:31:09;17.27;;;8.95;;
59042;SDS011;44826;51.596;5.624;2022-10-31T13:41:43;20.58;;;10.13;;
59042;SDS011;44826;51.596;5.624;2022-10-31T13:44:14;21.50;;;9.90;;
59042;SDS011;44826;51.596;5.624;2022-10-31T13:46:44;15.70;;;9.35;;
59042;SDS011;44826;51.596;5.624;2022-10-31T13:49:26;14.73;;;9.00;;
59042;SDS011;44826;51.596;5.624;2022-10-31T13:57:18;19.05;;;9.57;;
59042;SDS011;44826;51.596;5.624;2022-10-31T13:59:53;21.10;;;9.43;;
59042;SDS011;44826;51.596;5.624;2022-10-31T14:02:30;15.82;;;9.32;;
59042;SDS011;44826;51.596;5.624;2022-10-31T14:05:18;17.42;;;9.60;;
59042;SDS011;44826;51.596;5.624;2022-10-31T14:07:51;16.65;;;9.25;;
59042;SDS011;44826;51.596;5.624;2022-10-31T14:10:26;14.68;;;9.27;;
59042;SDS011;44826;51.596;5.624;2022-10-31T14:13:18;24.05;;;9.65;;
59042;SDS011;44826;51.596;5.624;2022-10-31T14:16:01;17.73;;;9.70;;
59042;SDS011;44826;51.596;5.624;2022-10-31T14:18:33;18.48;;;9.48;;
59042;SDS011;44826;51.596;5.624;2022-10-31T14:21:00;18.55;;;9.50;;
59042;SDS011;44826;51.596;5.624;2022-10-31T14:23:39;17.08;;;9.52;;
59042;SDS011;44826;51.596;5.624;2022-10-31T14:26:20;18.05;;;9.77;;
59042;SDS011;44826;51.596;5.624;2022-10-31T14:28:50;20.60;;;9.73;;
59042;SDS011;44826;51.596;5.624;2022-10-31T14:31:37;17.98;;;9.07;;
59042;SDS011;44826;51.596;5.624;2022-10-31T14:45:20;14.38;;;8.50;;
59042;SDS011;44826;51.596;5.624;2022-10-31T14:50:24;17.02;;;8.93;;
59042;SDS011;44826;51.596;5.624;2022-10-31T14:53:00;16.33;;;8.27;;
59042;SDS011;44826;51.596;5.624;2022-10-31T14:55:27;18.65;;;8.95;;
59042;SDS011;44826;51.596;5.624;2022-10-31T14:57:54;18.73;;;8.98;;
59042;SDS011;44826;51.596;5.624;2022-10-31T15:00:24;18.17;;;8.63;;
59042;SDS011;44826;51.596;5.624;2022-10-31T15:05:34;14.93;;;9.00;;
59042;SDS011;44826;51.596;5.624;2022-10-31T15:08:12;15.43;;;9.07;;
59042;SDS011;44826;51.596;5.624;2022-10-31T15:10:39;15.63;;;8.50;;
59042;SDS011;44826;51.596;5.624;2022-10-31T15:13:15;14.02;;;8.23;;
59042;SDS011;44826;51.596;5.624;2022-10-31T15:15:43;16.30;;;8.55;;
59042;SDS011;44826;51.596;5.624;2022-10-31T15:18:14;19.15;;;8.70;;
59042;SDS011;44826;51.596;5.624;2022-10-31T15:20:42;15.48;;;9.02;;
59042;SDS011;44826;51.596;5.624;2022-10-31T15:23:10;16.02;;;8.52;;
59042;SDS011;44826;51.596;5.624;2022-10-31T15:25:39;15.05;;;9.05;;
59042;SDS011;44826;51.596;5.624;2022-10-31T15:28:12;19.23;;;9.25;;
59042;SDS011;44826;51.596;5.624;2022-10-31T15:30:39;18.25;;;9.40;;
59042;SDS011;44826;51.596;5.624;2022-10-31T15:34:06;16.05;;;8.30;;
59042;SDS011;44826;51.596;5.624;2022-10-31T15:36:16;14.93;;;8.43;;
59042;SDS011;44826;51.596;5.624;2022-10-31T15:38:46;15.38;;;7.72;;
59042;SDS011;44826;51.596;5.624;2022-10-31T15:41:30;19.95;;;8.63;;
59042;SDS011;44826;51.596;5.624;2022-10-31T15:44:01;15.93;;;8.50;;
59042;SDS011;44826;51.596;5.624;2022-10-31T15:46:35;14.73;;;8.25;;
59042;SDS011;44826;51.596;5.624;2022-10-31T15:49:01;16.92;;;8.27;;
59042;SDS011;44826;51.596;5.624;2022-10-31T15:51:27;16.58;;;8.52;;
59042;SDS011;44826;51.596;5.624;2022-10-31T15:53:54;15.57;;;8.45;;
59042;SDS011;44826;51.596;5.624;2022-10-31T15:56:22;14.52;;;8.00;;
59042;SDS011;44826;51.596;5.624;2022-10-31T15:58:50;15.57;;;8.23;;
59042;SDS011;44826;51.596;5.624;2022-10-31T16:06:37;14.23;;;7.93;;
59042;SDS011;44826;51.596;5.624;2022-10-31T16:09:03;15.25;;;8.30;;
59042;SDS011;44826;51.596;5.624;2022-10-31T16:11:43;16.58;;;8.00;;
59042;SDS011;44826;51.596;5.624;2022-10-31T16:16:40;14.75;;;8.00;;
59042;SDS011;44826;51.596;5.624;2022-10-31T16:19:16;14.30;;;7.47;;
59042;SDS011;44826;51.596;5.624;2022-10-31T16:21:46;13.80;;;7.80;;
59042;SDS011;44826;51.596;5.624;2022-10-31T16:27:06;13.63;;;7.05;;
59042;SDS011;44826;51.596;5.624;2022-10-31T16:29:43;13.23;;;6.60;;
59042;SDS011;44826;51.596;5.624;2022-10-31T16:37:37;13.57;;;6.18;;
59042;SDS011;44826;51.596;5.624;2022-10-31T16:40:05;15.35;;;6.47;;
59042;SDS011;44826;51.596;5.624;2022-10-31T16:42:31;11.07;;;6.07;;
59042;SDS011;44826;51.596;5.624;2022-10-31T16:44:57;18.23;;;6.15;;
59042;SDS011;44826;51.596;5.624;2022-10-31T16:47:23;12.63;;;6.32;;
59042;SDS011;44826;51.596;5.624;2022-10-31T16:49:49;10.95;;;5.78;;
59042;SDS011;44826;51.596;5.624;2022-10-31T16:52:15;11.63;;;5.78;;
59042;SDS011;44826;51.596;5.624;2022-10-31T16:54:41;13.45;;;5.65;;
59042;SDS011;44826;51.596;5.624;2022-10-31T16:57:06;9.95;;;5.35;;
59042;SDS011;44826;51.596;5.624;2022-10-31T16:59:38;12.73;;;5.38;;
59042;SDS011;44826;51.596;5.624;2022-10-31T17:02:04;11.07;;;5.30;;
59042;SDS011;44826;51.596;5.624;2022-10-31T17:04:33;7.97;;;4.72;;
59042;SDS011;44826;51.596;5.624;2022-10-31T17:06:58;12.45;;;5.25;;
59042;SDS011;44826;51.596;5.624;2022-10-31T17:09:24;12.32;;;4.95;;
59042;SDS011;44826;51.596;5.624;2022-10-31T17:11:49;11.15;;;5.18;;
59042;SDS011;44826;51.596;5.624;2022-10-31T17:14:17;10.07;;;4.93;;
59042;SDS011;44826;51.596;5.624;2022-10-31T17:16:43;8.88;;;5.43;;
59042;SDS011;44826;51.596;5.624;2022-10-31T17:19:11;8.32;;;4.68;;